Weather at Niğde Airport

Public forecast

Using degrees Celsius for public forecast. Weather courtesy of forecast.io.

Closest aviation weather report (METAR) to Niğde Airport

Closest report is Nevşehir Kapadokya Airport, 55.7 nm (103.1 km) N.

2024/05/27 23:50 (retrieved 37 minutes ago)

LTAZ 272350Z 21004KT 9999 FEW040 SCT100 10/10 Q1014

Closest aviation forecast (TAF) to Niğde Airport

Forecast is more than 6 hours old.

Closest forecast is Erbil International Airport, 464.7 nm (860.6 km) E.

2024/05/27 18:03 (retrieved 6 hours ago)

TAF ORER 271700Z 2718/2818 23004KT 8000 NSC BECMG 2720/2722 VRB02KT